Time;durP1;ratioP1;P1;durP2;ratioP2;P2;SDS_P1;SDS_P2;PMS_P1;PMS_P2;Temp;Humidity;BMP_temperature;BMP_pressure;BME280_temperature;BME280_humidity;BME280_pressure;Samples;Min_cycle;Max_cycle;Signal;HPM_P1;HPM_P2
2023/06/11 00:00:23;;;;;;;7.57;6.70;;;;;;;18.99;98.96;94322.38;5035678;28;20875;-80
2023/06/11 00:02:53;;;;;;;5.77;5.20;;;;;;;18.97;96.51;94319.09;5054487;28;20475;-79
2023/06/11 00:05:22;;;;;;;6.10;4.63;;;;;;;18.96;94.65;94327.25;5054371;28;20535;-80
2023/06/11 00:07:49;;;;;;;4.63;4.23;;;;;;;18.92;93.75;94324.16;5018981;28;20536;-80
2023/06/11 00:10:16;;;;;;;6.70;4.60;;;;;;;18.86;93.62;94317.81;5054418;28;20533;-79
2023/06/11 00:12:43;;;;;;;4.60;4.20;;;;;;;18.84;94.59;94324.34;5053811;28;20999;-80
2023/06/11 00:15:11;;;;;;;5.37;4.97;;;;;;;18.84;94.75;94319.00;5053802;28;20997;-80
2023/06/11 00:17:37;;;;;;;5.40;4.90;;;;;;;18.76;94.82;94322.63;5054321;28;20455;-79
2023/06/11 00:20:11;;;;;;;6.40;4.33;;;;;;;18.72;94.13;94320.53;5054127;28;20433;-80
2023/06/11 00:22:39;;;;;;;4.87;4.40;;;;;;;18.70;93.68;94323.41;5052022;28;20434;-80
2023/06/11 00:25:07;;;;;;;7.80;4.27;;;;;;;18.70;95.37;94323.41;5053849;28;20456;-80
2023/06/11 00:27:35;;;;;;;4.90;4.50;;;;;;;18.70;94.34;94334.03;5053862;28;20809;-79
2023/06/11 00:30:04;;;;;;;8.93;4.60;;;;;;;18.70;94.45;94322.56;5053973;28;20518;-80
2023/06/11 00:32:31;;;;;;;6.43;4.63;;;;;;;18.66;94.73;94316.00;5054320;28;20872;-80
2023/06/11 00:34:58;;;;;;;13.10;5.60;;;;;;;18.67;95.14;94318.47;5053380;28;20463;-80
2023/06/11 00:37:25;;;;;;;4.73;4.17;;;;;;;18.69;94.83;94324.41;5053865;28;20468;-80
2023/06/11 00:39:53;;;;;;;5.77;4.67;;;;;;;18.65;93.60;94314.38;5053349;28;20443;-80
2023/06/11 00:42:20;;;;;;;5.27;4.30;;;;;;;18.61;94.21;94316.56;5053152;28;20456;-80
2023/06/11 00:44:48;;;;;;;5.10;4.70;;;;;;;18.56;94.76;94322.47;5034771;28;20509;-80
2023/06/11 00:47:16;;;;;;;5.37;4.87;;;;;;;18.61;94.61;94313.09;5035033;28;20574;-80
2023/06/11 00:49:43;;;;;;;5.20;4.70;;;;;;;18.65;93.71;94319.69;5053256;28;20458;-80
2023/06/11 00:52:13;;;;;;;5.27;4.80;;;;;;;18.56;93.99;94321.66;5052774;28;20841;-80
2023/06/11 00:54:40;;;;;;;5.23;4.73;;;;;;;18.50;95.34;94317.06;5053051;28;20454;-80
2023/06/11 00:57:10;;;;;;;4.90;4.50;;;;;;;18.50;95.46;94322.38;5053147;28;20435;-80
2023/06/11 00:59:38;;;;;;;5.50;5.00;;;;;;;18.50;95.23;94322.38;5018654;28;20476;-80
2023/06/11 01:02:15;;;;;;;7.03;6.43;;;;;;;18.49;95.22;94315.44;5053103;28;20471;-80
2023/06/11 01:04:42;;;;;;;7.73;4.97;;;;;;;18.50;95.36;94323.25;5053513;28;20447;-80
2023/06/11 01:07:13;;;;;;;8.70;6.13;;;;;;;18.49;95.67;94313.59;5053338;28;20596;-80
2023/06/11 01:09:41;;;;;;;5.80;5.20;;;;;;;18.43;96.04;94319.69;5053051;28;20564;-80
2023/06/11 01:12:10;;;;;;;7.43;5.20;;;;;;;18.51;95.53;94324.88;5018534;28;20451;-80
2023/06/11 01:14:38;;;;;;;5.87;5.30;;;;;;;18.54;95.39;94319.19;5053055;28;20492;-80
2023/06/11 01:17:15;;;;;;;6.50;5.20;;;;;;;18.55;96.86;94325.31;5053021;28;20448;-80
2023/06/11 01:20:10;;;;;;;5.10;4.60;;;;;;;18.60;96.22;94322.06;5053308;28;20486;-80
2023/06/11 01:22:56;;;;;;;6.33;5.63;;;;;;;18.65;96.74;94320.50;5053395;28;20832;-80
2023/06/11 01:25:32;;;;;;;9.27;5.60;;;;;;;18.66;95.96;94326.63;5053078;28;20498;-80
2023/06/11 01:28:08;;;;;;;6.47;5.90;;;;;;;18.63;96.25;94332.34;5034541;28;20487;-80
2023/06/11 01:30:37;;;;;;;5.47;4.97;;;;;;;18.64;97.48;94318.88;5052775;28;20923;-80
2023/06/11 01:33:05;;;;;;;5.27;4.87;;;;;;;18.66;96.15;94323.97;5053163;28;20447;-80
2023/06/11 01:35:33;;;;;;;9.53;5.87;;;;;;;18.71;95.28;94329.53;5052723;28;20437;-80
2023/06/11 01:38:00;;;;;;;5.33;4.83;;;;;;;18.62;95.12;94326.22;5053286;28;20937;-80
2023/06/11 01:40:27;;;;;;;6.23;4.40;;;;;;;18.63;95.87;94325.19;5034225;28;21239;-80
2023/06/11 01:42:55;;;;;;;6.13;5.53;;;;;;;18.58;95.01;94320.44;5052507;28;21194;-80
2023/06/11 01:45:24;;;;;;;5.73;5.23;;;;;;;18.56;95.32;94318.97;5052977;28;20432;-80
2023/06/11 01:47:52;;;;;;;5.97;4.90;;;;;;;18.49;95.43;94316.25;5052912;28;20497;-80
2023/06/11 01:50:19;;;;;;;4.63;4.30;;;;;;;18.40;95.79;94320.06;5052938;28;20447;-80
2023/06/11 01:52:47;;;;;;;8.30;5.00;;;;;;;18.37;96.48;94317.81;5052631;28;20442;-80
2023/06/11 01:55:13;;;;;;;5.60;5.10;;;;;;;18.35;97.14;94321.66;5052491;28;20502;-80
2023/06/11 01:57:42;;;;;;;8.73;5.70;;;;;;;18.32;97.78;94312.25;5052905;28;20445;-80
2023/06/11 02:00:10;;;;;;;5.33;4.83;;;;;;;18.38;97.13;94326.59;5052640;28;20926;-80
2023/06/11 02:02:39;;;;;;;6.40;5.20;;;;;;;18.36;97.11;94325.97;5017652;28;20926;-80
2023/06/11 02:05:07;;;;;;;6.10;5.50;;;;;;;18.39;97.97;94326.41;5056914;28;20494;-80
2023/06/11 02:07:33;;;;;;;4.77;4.37;;;;;;;18.41;97.55;94329.69;5056433;28;20542;-80
2023/06/11 02:10:00;;;;;;;7.93;5.03;;;;;;;18.45;96.98;94327.47;5056107;28;20446;-80
2023/06/11 02:12:27;;;;;;;5.57;5.07;;;;;;;18.45;97.27;94330.94;5056546;28;20453;-80
2023/06/11 02:14:54;;;;;;;5.30;4.90;;;;;;;18.41;97.65;94335.00;5056766;28;20438;-80
2023/06/11 02:17:21;;;;;;;6.60;4.97;;;;;;;18.38;96.76;94327.41;5056539;28;20809;-80
2023/06/11 02:19:50;;;;;;;6.10;5.00;;;;;;;18.41;96.98;94319.06;5021394;28;20445;-80
2023/06/11 02:22:17;;;;;;;6.03;5.50;;;;;;;18.45;96.59;94324.81;5056424;28;20494;-80
2023/06/11 02:24:43;;;;;;;7.30;4.97;;;;;;;18.41;95.96;94321.72;5037438;28;20447;-80
2023/06/11 02:27:10;;;;;;;7.03;6.37;;;;;;;18.41;97.04;94332.34;5055983;28;20499;-79
2023/06/11 02:29:37;;;;;;;6.57;5.10;;;;;;;18.40;97.15;94324.56;5056283;28;20451;-80
2023/06/11 02:32:04;;;;;;;7.40;5.50;;;;;;;18.39;96.91;94326.41;5056238;28;20495;-80
2023/06/11 02:34:31;;;;;;;6.70;5.97;;;;;;;18.42;96.67;94328.66;5055897;28;20920;-80
2023/06/11 02:36:59;;;;;;;6.20;5.70;;;;;;;18.42;96.16;94330.50;5056007;28;20453;-79
2023/06/11 02:39:26;;;;;;;7.90;6.10;;;;;;;18.42;96.16;94322.53;5055986;28;20431;-80
2023/06/11 02:41:53;;;;;;;5.80;5.17;;;;;;;18.42;96.32;94325.19;5055588;28;20440;-79
2023/06/11 02:44:21;;;;;;;6.00;5.50;;;;;;;18.35;95.67;94329.63;5055707;28;20492;-80
2023/06/11 02:46:48;;;;;;;6.10;5.50;;;;;;;18.36;95.75;94321.47;5055261;28;20523;-80
2023/06/11 02:49:14;;;;;;;6.33;5.63;;;;;;;18.36;94.96;94324.13;5055326;28;20493;-79
2023/06/11 02:51:41;;;;;;;6.53;5.93;;;;;;;18.28;95.19;94329.59;5055651;28;20430;-80
2023/06/11 02:54:09;;;;;;;6.67;5.97;;;;;;;18.22;95.28;94319.72;5055556;28;20933;-80
2023/06/11 02:56:36;;;;;;;6.47;5.77;;;;;;;18.25;96.85;94320.16;5055248;28;20496;-80
2023/06/11 02:59:03;;;;;;;7.23;6.53;;;;;;;18.26;96.74;94326.28;5055611;28;20452;-80
2023/06/11 03:01:30;;;;;;;6.93;5.87;;;;;;;18.25;96.27;94324.66;5055578;28;20436;-80
2023/06/11 03:03:57;;;;;;;6.97;6.27;;;;;;;18.24;96.03;94325.66;5055443;28;20931;-80
2023/06/11 03:06:23;;;;;;;7.30;6.17;;;;;;;18.20;96.05;94321.72;5055122;28;20521;-80
2023/06/11 03:08:51;;;;;;;7.50;5.87;;;;;;;18.20;96.15;94327.03;5055122;28;20494;-80
2023/06/11 03:11:19;;;;;;;5.63;5.13;;;;;;;18.21;95.89;94334.84;5004012;28;20439;-80
2023/06/11 03:13:45;;;;;;;6.63;6.00;;;;;;;18.23;95.68;94334.66;5055255;28;20443;-80
2023/06/11 03:16:12;;;;;;;6.33;5.70;;;;;;;18.25;96.89;94335.28;5054314;28;20448;-80
2023/06/11 03:18:39;;;;;;;6.37;5.77;;;;;;;18.32;97.80;94330.00;5055246;28;20451;-81
2023/06/11 03:21:06;;;;;;;8.57;5.90;;;;;;;18.36;99.43;94337.41;5055252;28;20846;-83
2023/06/11 03:23:32;;;;;;;7.30;5.73;;;;;;;18.43;99.38;94340.94;5055090;28;20443;-83
2023/06/11 03:25:59;;;;;;;5.37;4.97;;;;;;;18.44;97.17;94337.25;5055111;28;20447;-80
2023/06/11 03:28:27;;;;;;;7.27;6.03;;;;;;;18.43;95.81;94348.09;5054774;28;20817;-80
2023/06/11 03:30:54;;;;;;;6.57;5.97;;;;;;;18.38;95.63;94346.00;5055014;28;20440;-82
2023/06/11 03:33:21;;;;;;;6.70;6.10;;;;;;;18.45;95.58;94354.84;5054725;28;20431;-83
2023/06/11 03:35:48;;;;;;;6.37;5.77;;;;;;;18.40;95.38;94351.94;5054571;28;20431;-83
2023/06/11 03:38:14;;;;;;;8.00;7.30;;;;;;;18.40;95.67;94359.91;5054568;28;20508;-83
2023/06/11 03:40:42;;;;;;;6.83;6.23;;;;;;;18.39;95.08;94368.91;5054360;28;20455;-82
2023/06/11 03:43:08;;;;;;;11.53;6.07;;;;;;;18.40;95.35;94364.41;5055145;28;20812;-83
2023/06/11 03:45:37;;;;;;;7.07;6.37;;;;;;;18.41;94.85;94363.41;5052838;28;20459;-84
2023/06/11 03:48:04;;;;;;;6.67;6.07;;;;;;;18.42;94.74;94368.53;5056882;28;20509;-83
2023/06/11 03:50:31;;;;;;;7.47;6.17;;;;;;;18.79;100.00;94359.47;5019605;28;20477;-83
2023/06/11 03:52:58;;;;;;;8.83;6.30;;;;;;;19.42;100.00;94364.78;5054564;28;20853;-84
2023/06/11 03:55:24;;;;;;;8.17;5.97;;;;;;;19.99;100.00;94371.59;5053897;28;20933;-83
2023/06/11 03:57:51;;;;;;;6.23;5.30;;;;;;;20.51;93.73;94383.41;5054469;28;20458;-84
2023/06/11 04:00:18;;;;;;;7.63;5.63;;;;;;;21.01;87.44;94382.00;5035362;28;20940;-83
2023/06/11 04:02:46;;;;;;;10.80;5.97;;;;;;;21.40;86.02;94393.69;5035722;28;20492;-83
2023/06/11 04:05:13;;;;;;;7.00;5.70;;;;;;;21.71;82.41;94388.47;5053882;28;20907;-82
2023/06/11 04:07:40;;;;;;;7.40;5.33;;;;;;;22.00;80.44;94388.97;5053991;28;20482;-82
2023/06/11 04:10:08;;;;;;;5.60;5.10;;;;;;;22.19;81.27;94382.72;5053710;28;20847;-83
2023/06/11 04:12:34;;;;;;;6.23;5.37;;;;;;;22.37;81.77;94382.84;5053950;28;21000;-83
2023/06/11 04:15:02;;;;;;;6.00;4.70;;;;;;;22.51;80.70;94378.22;5053876;28;20452;-83
2023/06/11 04:17:28;;;;;;;5.20;4.70;;;;;;;22.59;79.37;94386.00;5053474;28;20541;-83
2023/06/11 04:19:57;;;;;;;8.53;6.80;;;;;;;22.69;79.42;94386.34;5053946;28;20511;-83
2023/06/11 04:22:23;;;;;;;6.33;5.70;;;;;;;22.81;78.89;94378.44;5053347;28;20931;-82
2023/06/11 04:24:50;;;;;;;7.23;4.90;;;;;;;22.84;79.50;94384.22;5053168;28;20448;-82
2023/06/11 04:27:17;;;;;;;8.47;5.43;;;;;;;22.91;79.64;94380.66;5053424;28;20526;-83
2023/06/11 04:29:45;;;;;;;6.87;6.03;;;;;;;23.02;82.09;94380.75;5053478;28;20450;-82
2023/06/11 04:32:11;;;;;;;6.80;6.13;;;;;;;23.14;83.00;94372.84;5053699;28;20534;-85
2023/06/11 04:34:38;;;;;;;6.60;6.00;;;;;;;23.30;80.45;94376.78;5054031;28;20758;-84
2023/06/11 04:37:08;;;;;;;5.77;5.27;;;;;;;23.37;77.14;94378.38;5053418;28;20450;-83
2023/06/11 04:39:35;;;;;;;6.10;5.60;;;;;;;23.29;76.27;94373.28;5053257;28;20505;-81
2023/06/11 04:42:02;;;;;;;6.23;5.73;;;;;;;23.34;76.68;94378.81;5053639;28;20510;-83
2023/06/11 04:44:29;;;;;;;5.23;4.73;;;;;;;23.23;76.89;94376.88;5053503;28;20569;-82
2023/06/11 04:46:57;;;;;;;8.50;4.87;;;;;;;23.25;79.66;94376.66;5053300;28;20806;-83
2023/06/11 04:49:24;;;;;;;5.73;4.67;;;;;;;23.37;84.30;94369.50;5053006;28;20492;-82
2023/06/11 04:51:52;;;;;;;5.30;4.80;;;;;;;23.34;82.36;94375.31;5053199;28;20450;-83
2023/06/11 04:54:21;;;;;;;11.03;4.60;;;;;;;23.27;79.46;94372.69;5053775;28;20538;-82
2023/06/11 04:56:48;;;;;;;8.67;6.03;;;;;;;22.97;76.89;94369.88;5053579;28;20447;-81
2023/06/11 04:59:15;;;;;;;6.13;5.63;;;;;;;22.62;80.36;94363.34;5049420;28;20483;-80
2023/06/11 05:01:46;;;;;;;8.47;6.27;;;;;;;22.32;78.73;94366.63;5053735;28;20447;-81
2023/06/11 05:04:13;;;;;;;7.63;6.17;;;;;;;22.05;82.54;94363.28;5053157;28;20482;-80
2023/06/11 05:06:44;;;;;;;6.90;6.20;;;;;;;21.68;80.98;94361.34;5053539;28;20536;-80
2023/06/11 05:09:12;;;;;;;6.70;6.10;;;;;;;21.45;82.55;94370.66;5053202;28;20499;-80
2023/06/11 05:11:41;;;;;;;7.87;6.93;;;;;;;21.32;83.42;94368.00;5039969;28;20480;-79
2023/06/11 05:14:08;;;;;;;7.37;6.30;;;;;;;21.19;84.10;94368.84;5045463;28;20528;-79
2023/06/11 05:16:35;;;;;;;7.90;5.40;;;;;;;21.04;84.83;94369.06;5047260;28;20449;-80
2023/06/11 05:19:02;;;;;;;5.90;5.40;;;;;;;20.90;85.72;94370.09;5052985;28;20455;-79
2023/06/11 05:21:30;;;;;;;7.43;5.63;;;;;;;20.83;86.15;94363.13;5053197;28;20840;-79
2023/06/11 05:24:06;;;;;;;8.20;5.90;;;;;;;20.79;88.04;94370.69;5039801;28;20454;-80
2023/06/11 05:26:33;;;;;;;6.83;6.20;;;;;;;20.92;99.48;94356.56;5053004;28;20811;-82
2023/06/11 05:29:02;;;;;;;6.90;6.30;;;;;;;20.98;100.00;94361.88;5052946;28;20472;-80
2023/06/11 05:31:30;;;;;;;10.33;6.87;;;;;;;20.89;94.11;94367.66;5052703;28;20450;-85
2023/06/11 05:33:57;;;;;;;6.87;6.27;;;;;;;20.90;89.15;94374.63;5044355;28;20440;-80
2023/06/11 05:36:24;;;;;;;9.23;6.33;;;;;;;20.86;86.99;94374.22;5047626;28;20450;-81
2023/06/11 05:38:52;;;;;;;6.50;5.90;;;;;;;20.80;86.28;94377.69;5047502;28;20459;-81
2023/06/11 05:41:19;;;;;;;8.37;7.50;;;;;;;20.79;86.98;94380.56;5036987;28;20498;-81
2023/06/11 05:43:46;;;;;;;9.00;6.20;;;;;;;20.75;87.71;94374.81;5045192;28;20481;-81
2023/06/11 05:46:15;;;;;;;7.27;6.30;;;;;;;20.82;90.03;94388.16;5056997;28;20518;-80
2023/06/11 05:48:43;;;;;;;19.07;8.10;;;;;;;20.95;96.60;94374.81;5056172;28;20488;-83
2023/06/11 05:51:09;;;;;;;10.70;7.30;;;;;;;21.01;89.22;94382.00;5021899;28;20458;-80
2023/06/11 05:53:36;;;;;;;8.93;6.60;;;;;;;21.08;88.68;94385.47;5055918;28;20462;-80
2023/06/11 05:56:05;;;;;;;6.53;5.80;;;;;;;21.09;89.25;94378.28;5021481;28;20447;-80
2023/06/11 05:58:32;;;;;;;10.80;7.00;;;;;;;21.09;88.10;94381.78;5056679;28;20451;-80
2023/06/11 06:01:01;;;;;;;12.70;7.47;;;;;;;21.17;87.49;94383.44;5056626;28;20442;-80
2023/06/11 06:03:29;;;;;;;10.43;7.17;;;;;;;21.24;88.08;94384.25;5048358;28;20456;-80
2023/06/11 06:05:56;;;;;;;8.80;6.70;;;;;;;21.33;90.01;94380.34;5055427;28;20500;-80
2023/06/11 06:08:23;;;;;;;10.20;6.97;;;;;;;21.41;87.67;94381.97;5054914;28;20479;-81
2023/06/11 06:10:49;;;;;;;7.13;6.43;;;;;;;21.44;87.61;94385.06;5055001;28;20507;-81
2023/06/11 06:13:16;;;;;;;9.77;6.30;;;;;;;21.53;90.48;94380.28;5055339;28;20502;-80
2023/06/11 06:15:43;;;;;;;10.23;8.30;;;;;;;21.61;86.59;94391.56;5055218;28;20452;-80
2023/06/11 06:18:10;;;;;;;13.20;7.70;;;;;;;21.67;86.12;94386.41;5055104;28;20969;-80
2023/06/11 06:20:38;;;;;;;12.53;8.87;;;;;;;21.61;84.27;94391.56;5055200;28;20484;-81
2023/06/11 06:23:05;;;;;;;10.57;8.53;;;;;;;21.69;87.52;94384.38;5054961;28;20449;-80
2023/06/11 06:25:33;;;;;;;11.00;8.00;;;;;;;21.76;87.95;94385.97;5019760;28;20532;-80
2023/06/11 06:28:00;;;;;;;8.60;7.20;;;;;;;21.76;84.97;94379.81;5055172;28;20510;-81
2023/06/11 06:30:27;;;;;;;9.67;8.20;;;;;;;21.77;84.19;94384.94;5019494;28;20966;-80
2023/06/11 06:32:53;;;;;;;8.60;7.67;;;;;;;21.82;84.68;94384.31;5054964;28;20807;-80
2023/06/11 06:35:20;;;;;;;8.73;7.83;;;;;;;21.68;83.72;94388.03;5054761;28;20449;-81
2023/06/11 06:37:48;;;;;;;10.50;8.30;;;;;;;21.78;84.53;94383.09;5054550;28;20945;-80
2023/06/11 06:40:15;;;;;;;13.20;7.97;;;;;;;21.84;85.40;94382.25;5054392;28;20514;-81
2023/06/11 06:42:42;;;;;;;11.37;9.13;;;;;;;21.92;86.25;94380.16;5054537;28;20444;-81
2023/06/11 06:45:10;;;;;;;9.47;8.67;;;;;;;21.93;85.17;94380.97;5054480;28;20469;-81
2023/06/11 06:47:36;;;;;;;8.73;7.93;;;;;;;21.93;84.61;94386.31;5054513;28;20984;-81
2023/06/11 06:50:03;;;;;;;8.77;7.97;;;;;;;22.03;84.68;94386.69;5053222;28;20489;-81
2023/06/11 06:52:30;;;;;;;8.63;7.50;;;;;;;22.09;84.44;94380.53;5054292;28;20447;-81
2023/06/11 06:54:58;;;;;;;20.30;8.53;;;;;;;22.19;84.00;94374.72;5019258;28;20792;-81
2023/06/11 06:57:25;;;;;;;10.03;8.07;;;;;;;22.29;84.72;94383.09;5054561;28;20451;-80
2023/06/11 06:59:52;;;;;;;18.37;8.20;;;;;;;22.37;83.01;94385.50;5054419;28;20456;-80
2023/06/11 07:02:18;;;;;;;12.40;7.80;;;;;;;22.31;81.79;94383.72;5054259;28;20503;-81
2023/06/11 07:04:45;;;;;;;11.00;7.97;;;;;;;22.49;83.56;94380.28;5054383;28;20493;-81
2023/06/11 07:07:14;;;;;;;10.90;8.17;;;;;;;22.65;83.11;94382.44;5053899;28;20934;-81
2023/06/11 07:09:41;;;;;;;10.40;7.73;;;;;;;22.76;80.91;94387.09;5019252;28;20483;-81
2023/06/11 07:12:10;;;;;;;13.30;8.00;;;;;;;22.90;79.81;94387.84;5053942;28;20783;-81
2023/06/11 07:14:37;;;;;;;13.00;8.00;;;;;;;22.98;76.23;94390.25;5018639;28;20447;-81
2023/06/11 07:17:04;;;;;;;8.87;7.97;;;;;;;23.05;76.28;94387.50;5055123;28;20451;-80
2023/06/11 07:19:31;;;;;;;10.13;8.47;;;;;;;23.17;76.70;94386.59;5055110;28;20517;-80
2023/06/11 07:21:58;;;;;;;12.87;9.00;;;;;;;23.23;76.34;94387.56;5055343;28;20473;-80
2023/06/11 07:24:25;;;;;;;9.70;8.13;;;;;;;23.41;76.00;94390.25;5054848;28;20460;-79
2023/06/11 07:26:51;;;;;;;10.33;8.20;;;;;;;23.60;75.52;94385.78;5054505;28;20437;-81
2023/06/11 07:29:20;;;;;;;8.33;7.53;;;;;;;23.81;73.91;94383.72;5053776;28;20549;-81
2023/06/11 07:31:46;;;;;;;11.33;7.83;;;;;;;23.95;72.52;94393.22;5053692;28;20507;-81
2023/06/11 07:34:15;;;;;;;13.03;9.10;;;;;;;23.94;71.81;94386.22;5053620;28;20449;-81
2023/06/11 07:36:41;;;;;;;9.23;7.73;;;;;;;23.97;71.07;94391.13;5054053;28;20462;-81
2023/06/11 07:39:08;;;;;;;8.17;7.37;;;;;;;23.99;70.70;94391.72;5053824;28;20453;-81
2023/06/11 07:41:35;;;;;;;11.13;8.03;;;;;;;24.15;71.73;94393.81;5018383;28;20449;-80
2023/06/11 07:44:02;;;;;;;8.67;7.77;;;;;;;24.34;72.38;94382.03;5053699;28;20465;-81
2023/06/11 07:46:30;;;;;;;8.90;7.07;;;;;;;24.46;69.70;94384.75;5053233;28;20465;-81
2023/06/11 07:48:57;;;;;;;7.70;7.00;;;;;;;24.54;68.58;94380.94;5017977;28;20477;-81
2023/06/11 07:51:23;;;;;;;11.03;8.00;;;;;;;24.66;67.41;94382.63;5034632;28;20445;-81
2023/06/11 07:53:50;;;;;;;15.20;8.13;;;;;;;24.79;66.90;94380.75;5053506;28;20450;-80
2023/06/11 07:56:17;;;;;;;9.63;7.70;;;;;;;24.97;67.55;94365.41;5018398;28;20540;-81
2023/06/11 07:58:44;;;;;;;12.60;7.50;;;;;;;25.45;66.51;94374.34;5053118;28;20448;-80
2023/06/11 08:01:11;;;;;;;10.23;8.17;;;;;;;25.48;63.15;94366.63;5052586;28;20447;-81
2023/06/11 08:03:39;;;;;;;9.90;6.47;;;;;;;25.89;64.33;94354.91;5018042;28;20446;-81
2023/06/11 08:06:06;;;;;;;10.50;6.77;;;;;;;26.30;59.96;94361.06;5053138;28;20528;-80
2023/06/11 08:08:33;;;;;;;7.83;7.10;;;;;;;26.60;60.51;94352.81;5052854;28;21017;-81
2023/06/11 08:11:00;;;;;;;7.00;6.30;;;;;;;26.90;56.25;94344.44;5053026;28;20446;-81
2023/06/11 08:13:27;;;;;;;10.77;7.60;;;;;;;27.08;56.21;94351.47;5052722;28;20864;-81
2023/06/11 08:15:54;;;;;;;8.10;6.67;;;;;;;27.15;55.65;94352.09;5053222;28;20440;-81
2023/06/11 08:18:20;;;;;;;9.10;6.20;;;;;;;26.95;56.05;94346.38;5052656;28;20442;-81
2023/06/11 08:20:49;;;;;;;6.40;5.83;;;;;;;26.68;58.37;94349.72;5052882;28;20453;-80
2023/06/11 08:23:15;;;;;;;15.00;6.67;;;;;;;27.02;57.81;94353.28;5053285;28;20441;-79
2023/06/11 08:25:43;;;;;;;6.60;6.10;;;;;;;27.12;55.57;94347.22;5052511;28;20446;-79
2023/06/11 08:28:09;;;;;;;6.67;6.07;;;;;;;27.30;55.94;94356.94;5052624;28;20453;-80
2023/06/11 08:30:36;;;;;;;8.07;6.37;;;;;;;27.63;56.48;94350.69;5052263;28;20534;-80
2023/06/11 08:33:03;;;;;;;14.90;9.57;;;;;;;27.54;53.17;94352.97;5017441;28;20503;-80
2023/06/11 08:35:30;;;;;;;11.50;7.83;;;;;;;27.41;53.73;94353.31;5017350;28;20437;-79
2023/06/11 08:37:58;;;;;;;7.43;6.57;;;;;;;27.45;53.56;94349.88;5052509;28;20452;-81
2023/06/11 08:40:25;;;;;;;8.47;7.67;;;;;;;26.65;54.49;94344.81;5052347;28;20868;-79
2023/06/11 08:42:52;;;;;;;8.37;6.20;;;;;;;26.01;57.15;94345.97;5052376;28;20450;-80
2023/06/11 08:45:18;;;;;;;10.80;6.67;;;;;;;26.31;59.19;94334.97;5052103;28;20445;-80
2023/06/11 08:47:50;;;;;;;8.00;7.20;;;;;;;26.51;55.81;94338.91;5052564;28;20449;-80
2023/06/11 08:50:19;;;;;;;6.87;6.23;;;;;;;25.96;57.76;94341.31;5052146;28;20584;-79
2023/06/11 08:52:50;;;;;;;14.83;7.13;;;;;;;25.59;59.27;94346.97;5052385;28;20445;-80
2023/06/11 08:55:19;;;;;;;7.40;6.70;;;;;;;25.64;56.83;94341.69;5052320;28;20532;-80
2023/06/11 08:57:46;;;;;;;7.90;6.40;;;;;;;25.88;57.13;94347.06;5053334;28;20499;-80
2023/06/11 09:00:14;;;;;;;7.20;6.60;;;;;;;25.99;56.09;94337.31;5053126;28;20460;-80
2023/06/11 09:02:41;;;;;;;9.03;8.03;;;;;;;26.18;58.65;94341.47;5018440;28;20442;-80
2023/06/11 09:05:09;;;;;;;11.37;6.90;;;;;;;26.54;59.59;94335.72;5053552;28;20457;-80
2023/06/11 09:07:36;;;;;;;7.23;6.10;;;;;;;26.74;56.00;94337.16;5053881;28;20798;-80
2023/06/11 09:10:05;;;;;;;7.90;7.20;;;;;;;26.60;56.18;94339.34;5053904;28;20489;-79
2023/06/11 09:12:33;;;;;;;7.03;6.33;;;;;;;26.72;57.89;94325.81;5053685;28;20460;-80
2023/06/11 09:15:00;;;;;;;10.67;7.33;;;;;;;26.54;54.74;94330.34;5053688;28;20464;-80
2023/06/11 09:17:34;;;;;;;7.80;6.63;;;;;;;25.87;55.39;94330.13;5053013;28;20449;-79
2023/06/11 09:20:05;;;;;;;9.47;6.83;;;;;;;26.01;57.83;94321.78;5054828;28;20528;-80
2023/06/11 09:22:32;;;;;;;7.57;6.87;;;;;;;25.97;56.79;94317.94;5020062;28;20449;-81
2023/06/11 09:25:03;;;;;;;8.57;7.57;;;;;;;25.94;58.22;94319.22;5035657;28;20449;-79
2023/06/11 09:27:30;;;;;;;6.37;5.63;;;;;;;25.73;58.32;94315.31;5019364;28;20442;-82
2023/06/11 09:30:07;;;;;;;11.00;7.27;;;;;;;25.94;57.80;94311.16;5054574;28;20489;-82
2023/06/11 09:32:38;;;;;;;11.40;7.27;;;;;;;26.20;59.22;94315.16;5018954;28;20452;-82
2023/06/11 09:35:07;;;;;;;8.07;7.17;;;;;;;25.76;56.65;94314.84;5055995;28;20882;-82
2023/06/11 09:37:40;;;;;;;6.97;6.27;;;;;;;26.15;58.88;94307.00;5059017;28;20472;-88
2023/06/11 09:40:10;;;;;;;12.13;7.10;;;;;;;26.07;57.69;94299.31;5055293;28;20532;-86
2023/06/11 09:42:37;;;;;;;8.00;6.20;;;;;;;26.32;55.96;94305.19;5053455;28;20434;-82
2023/06/11 09:45:13;;;;;;;10.10;7.50;;;;;;;26.54;56.38;94308.00;5053549;28;20482;-82
2023/06/11 09:47:40;;;;;;;7.97;6.77;;;;;;;26.69;55.59;94299.38;5053347;28;20509;-83
2023/06/11 09:50:09;;;;;;;11.13;7.50;;;;;;;26.73;53.30;94306.72;5053204;28;20469;-81
2023/06/11 09:52:38;;;;;;;9.77;6.20;;;;;;;26.22;54.56;94303.09;5052872;28;20457;-84
2023/06/11 09:55:08;;;;;;;7.90;7.10;;;;;;;26.39;52.17;94305.88;5053331;28;20449;-80
2023/06/11 09:57:34;;;;;;;8.00;7.20;;;;;;;26.11;54.30;94300.47;5052809;28;20540;-79
2023/06/11 10:00:02;;;;;;;8.77;6.83;;;;;;;26.11;54.35;94295.91;5053054;28;21016;-81
2023/06/11 10:02:30;;;;;;;11.50;6.93;;;;;;;25.92;55.34;94300.66;5052909;28;20430;-80
2023/06/11 10:04:57;;;;;;;8.13;7.10;;;;;;;25.96;55.07;94295.59;5052856;28;20495;-84
2023/06/11 10:07:25;;;;;;;8.70;6.67;;;;;;;25.98;55.26;94287.28;5052392;28;20843;-86
2023/06/11 10:09:54;;;;;;;9.83;6.53;;;;;;;26.09;55.36;94291.81;5052856;28;20489;-82
2023/06/11 10:12:21;;;;;;;8.70;7.77;;;;;;;26.12;55.23;94286.78;5052872;28;20441;-81
2023/06/11 10:14:52;;;;;;;6.47;5.80;;;;;;;26.31;52.95;94279.34;5052176;28;20520;-80
2023/06/11 10:17:19;;;;;;;9.00;6.23;;;;;;;26.20;51.54;94283.69;5034161;28;20470;-82
2023/06/11 10:19:51;;;;;;;7.73;7.13;;;;;;;26.19;49.99;94289.31;5050243;28;20501;-82
2023/06/11 10:22:22;;;;;;;7.93;5.87;;;;;;;25.98;52.61;94287.28;5040826;28;20461;-80
2023/06/11 10:25:00;;;;;;;15.33;6.33;;;;;;;26.12;50.93;94289.47;5053969;28;20468;-80
2023/06/11 10:27:36;;;;;;;10.37;7.13;;;;;;;26.24;53.99;94273.25;5056298;28;20527;-80
2023/06/11 10:30:04;;;;;;;7.87;7.07;;;;;;;26.30;51.53;94269.59;5054451;28;20469;-80
2023/06/11 10:32:31;;;;;;;9.40;6.80;;;;;;;26.51;51.72;94271.63;5056201;28;20770;-80
2023/06/11 10:35:00;;;;;;;10.80;6.80;;;;;;;26.57;52.21;94280.59;5055927;28;20430;-79
2023/06/11 10:37:30;;;;;;;8.13;6.53;;;;;;;26.54;49.39;94276.50;5055846;28;20446;-80
2023/06/11 10:39:57;;;;;;;7.50;6.80;;;;;;;26.36;51.38;94262.50;5055904;28;20532;-79
2023/06/11 10:42:25;;;;;;;7.97;7.27;;;;;;;26.60;49.40;94265.81;5055700;28;20940;-80
2023/06/11 10:44:52;;;;;;;7.80;7.00;;;;;;;26.69;48.11;94261.69;5056588;28;21015;-80
2023/06/11 10:47:19;;;;;;;9.50;6.10;;;;;;;26.34;48.85;94270.00;5055765;28;20446;-80
2023/06/11 10:49:46;;;;;;;7.30;6.60;;;;;;;26.39;49.26;94260.13;5055410;28;20473;-80
2023/06/11 10:52:14;;;;;;;7.00;6.33;;;;;;;26.57;50.43;94256.38;5055696;28;20441;-80
2023/06/11 10:54:43;;;;;;;7.63;6.87;;;;;;;26.66;50.80;94262.19;5055237;28;20924;-80
2023/06/11 10:57:10;;;;;;;7.40;6.60;;;;;;;26.75;50.65;94250.75;5055704;28;20541;-81
2023/06/11 10:59:38;;;;;;;8.40;7.60;;;;;;;26.59;49.96;94251.56;5055710;28;20495;-80
2023/06/11 11:02:05;;;;;;;6.37;5.80;;;;;;;26.57;51.87;94258.25;5055138;28;20446;-80
2023/06/11 11:04:32;;;;;;;10.93;7.57;;;;;;;26.34;51.06;94257.34;5055524;28;20477;-80
2023/06/11 11:07:07;;;;;;;9.40;6.73;;;;;;;26.37;51.19;94247.97;5055485;28;20442;-80
2023/06/11 11:09:36;;;;;;;8.03;6.53;;;;;;;26.30;48.89;94253.47;5054834;28;20469;-80
2023/06/11 11:12:03;;;;;;;8.13;6.87;;;;;;;26.03;51.93;94255.97;5055736;28;20446;-80
2023/06/11 11:14:31;;;;;;;7.80;5.90;;;;;;;26.07;53.70;94281.31;5055408;28;20461;-81
2023/06/11 11:17:00;;;;;;;6.03;5.13;;;;;;;25.72;54.84;94267.16;5055218;28;20445;-80
2023/06/11 11:19:28;;;;;;;7.17;5.20;;;;;;;25.49;55.99;94259.97;5055578;28;20513;-79
2023/06/11 11:21:55;;;;;;;6.90;5.40;;;;;;;25.56;56.06;94268.72;5055269;28;20508;-79
2023/06/11 11:24:21;;;;;;;5.93;5.33;;;;;;;25.17;57.28;94263.06;5055162;28;20495;-79
2023/06/11 11:26:50;;;;;;;6.23;5.63;;;;;;;25.00;56.85;94260.25;5054949;28;20805;-79
2023/06/11 11:29:16;;;;;;;6.00;5.17;;;;;;;25.23;57.49;94264.81;5054984;28;20453;-79
2023/06/11 11:31:45;;;;;;;11.00;5.57;;;;;;;25.38;56.06;94264.31;5053733;28;20545;-81
2023/06/11 11:34:12;;;;;;;7.30;4.60;;;;;;;25.31;55.32;94259.06;5053905;28;20533;-78